Terminal Aerodrome Forecast
Issued by NWS

Home | Current Version | Previous Version | Text Only | Print | Product List | Glossary On
Versions: 1 2 3 4 5 6 7 8 9 10 11 12 13 14 15 16 17 18
000
FTUS45 KTFX 271900 AAA
TAFGTF
TAF AMD
KGTF 271904Z 2719/2818 22018G28KT P6SM BKN070
     FM280000 20014KT P6SM OVC050
     FM280500 20010KT 2SM -SN OVC012
     FM281600 36008KT 1SM -SN BR OVC008=

USA.gov is the U.S. government's official web portal to all federal, state and local government web resources and services.